sensor_id;sensor_type;location;lat;lon;timestamp;P1;durP1;ratioP1;P2;durP2;ratioP2
77612;SDS011;66777;52.282;5.960;2023-03-19T00:01:55;5.78;;;2.65;;
77612;SDS011;66777;52.282;5.960;2023-03-19T00:04:21;5.88;;;2.92;;
77612;SDS011;66777;52.282;5.960;2023-03-19T00:06:48;7.80;;;2.30;;
77612;SDS011;66777;52.282;5.960;2023-03-19T00:09:15;4.68;;;2.53;;
77612;SDS011;66777;52.282;5.960;2023-03-19T00:11:41;6.57;;;2.58;;
77612;SDS011;66777;52.282;5.960;2023-03-19T00:14:07;6.05;;;2.67;;
77612;SDS011;66777;52.282;5.960;2023-03-19T00:16:33;6.75;;;2.92;;
77612;SDS011;66777;52.282;5.960;2023-03-19T00:19:00;7.40;;;2.70;;
77612;SDS011;66777;52.282;5.960;2023-03-19T00:21:26;7.10;;;3.10;;
77612;SDS011;66777;52.282;5.960;2023-03-19T00:23:53;7.55;;;3.33;;
77612;SDS011;66777;52.282;5.960;2023-03-19T00:26:28;6.80;;;3.33;;
77612;SDS011;66777;52.282;5.960;2023-03-19T00:28:54;5.30;;;2.83;;
77612;SDS011;66777;52.282;5.960;2023-03-19T00:31:21;6.53;;;2.80;;
77612;SDS011;66777;52.282;5.960;2023-03-19T00:33:47;10.18;;;3.30;;
77612;SDS011;66777;52.282;5.960;2023-03-19T00:36:14;8.65;;;3.42;;
77612;SDS011;66777;52.282;5.960;2023-03-19T00:38:40;6.43;;;3.85;;
77612;SDS011;66777;52.282;5.960;2023-03-19T00:41:07;8.50;;;3.38;;
77612;SDS011;66777;52.282;5.960;2023-03-19T00:43:34;7.70;;;3.20;;
77612;SDS011;66777;52.282;5.960;2023-03-19T00:46:00;7.43;;;3.35;;
77612;SDS011;66777;52.282;5.960;2023-03-19T00:48:27;7.07;;;3.22;;
77612;SDS011;66777;52.282;5.960;2023-03-19T00:50:53;7.53;;;3.22;;
77612;SDS011;66777;52.282;5.960;2023-03-19T00:53:20;6.82;;;3.33;;
77612;SDS011;66777;52.282;5.960;2023-03-19T00:55:46;6.90;;;3.47;;
77612;SDS011;66777;52.282;5.960;2023-03-19T00:58:11;7.78;;;3.22;;
77612;SDS011;66777;52.282;5.960;2023-03-19T01:00:37;9.15;;;3.30;;
77612;SDS011;66777;52.282;5.960;2023-03-19T01:03:04;6.18;;;3.20;;
77612;SDS011;66777;52.282;5.960;2023-03-19T01:05:30;6.85;;;2.92;;
77612;SDS011;66777;52.282;5.960;2023-03-19T01:07:58;5.70;;;3.08;;
77612;SDS011;66777;52.282;5.960;2023-03-19T01:10:23;6.93;;;3.08;;
77612;SDS011;66777;52.282;5.960;2023-03-19T01:12:49;7.25;;;3.33;;
77612;SDS011;66777;52.282;5.960;2023-03-19T01:15:15;6.07;;;3.22;;
77612;SDS011;66777;52.282;5.960;2023-03-19T01:17:41;6.05;;;2.90;;
77612;SDS011;66777;52.282;5.960;2023-03-19T01:20:07;5.75;;;2.45;;
77612;SDS011;66777;52.282;5.960;2023-03-19T01:22:40;7.75;;;2.92;;
77612;SDS011;66777;52.282;5.960;2023-03-19T01:25:08;5.13;;;2.70;;
77612;SDS011;66777;52.282;5.960;2023-03-19T01:30:02;5.57;;;2.25;;
77612;SDS011;66777;52.282;5.960;2023-03-19T01:32:29;5.93;;;2.45;;
77612;SDS011;66777;52.282;5.960;2023-03-19T01:34:55;7.97;;;2.80;;
77612;SDS011;66777;52.282;5.960;2023-03-19T01:37:21;6.80;;;3.10;;
77612;SDS011;66777;52.282;5.960;2023-03-19T01:39:47;6.13;;;2.70;;
77612;SDS011;66777;52.282;5.960;2023-03-19T01:42:13;6.85;;;2.83;;
77612;SDS011;66777;52.282;5.960;2023-03-19T01:44:39;6.60;;;3.17;;
77612;SDS011;66777;52.282;5.960;2023-03-19T01:47:51;6.68;;;3.03;;
77612;SDS011;66777;52.282;5.960;2023-03-19T01:49:57;5.30;;;2.38;;
77612;SDS011;66777;52.282;5.960;2023-03-19T01:52:23;6.38;;;2.80;;
77612;SDS011;66777;52.282;5.960;2023-03-19T01:54:52;6.35;;;3.03;;
77612;SDS011;66777;52.282;5.960;2023-03-19T01:57:20;8.40;;;3.17;;
77612;SDS011;66777;52.282;5.960;2023-03-19T01:59:49;8.73;;;3.28;;
77612;SDS011;66777;52.282;5.960;2023-03-19T02:02:20;7.07;;;3.00;;
77612;SDS011;66777;52.282;5.960;2023-03-19T02:04:49;6.35;;;2.83;;
77612;SDS011;66777;52.282;5.960;2023-03-19T02:07:18;7.20;;;3.08;;
77612;SDS011;66777;52.282;5.960;2023-03-19T02:09:44;5.78;;;2.55;;
77612;SDS011;66777;52.282;5.960;2023-03-19T02:12:10;6.75;;;2.92;;
77612;SDS011;66777;52.282;5.960;2023-03-19T02:14:37;6.70;;;2.78;;
77612;SDS011;66777;52.282;5.960;2023-03-19T02:17:04;7.72;;;3.60;;
77612;SDS011;66777;52.282;5.960;2023-03-19T02:22:13;7.95;;;3.08;;
77612;SDS011;66777;52.282;5.960;2023-03-19T02:27:17;7.70;;;3.05;;
77612;SDS011;66777;52.282;5.960;2023-03-19T02:29:43;9.65;;;3.47;;
77612;SDS011;66777;52.282;5.960;2023-03-19T02:32:08;7.45;;;2.97;;
77612;SDS011;66777;52.282;5.960;2023-03-19T02:34:36;7.72;;;3.22;;
77612;SDS011;66777;52.282;5.960;2023-03-19T02:37:05;7.70;;;3.70;;
77612;SDS011;66777;52.282;5.960;2023-03-19T02:39:59;9.57;;;3.33;;
77612;SDS011;66777;52.282;5.960;2023-03-19T02:42:29;5.80;;;3.22;;
77612;SDS011;66777;52.282;5.960;2023-03-19T02:44:55;6.97;;;3.35;;
77612;SDS011;66777;52.282;5.960;2023-03-19T02:47:22;7.63;;;3.53;;
77612;SDS011;66777;52.282;5.960;2023-03-19T02:49:48;8.70;;;4.57;;
77612;SDS011;66777;52.282;5.960;2023-03-19T02:52:14;6.97;;;3.30;;
77612;SDS011;66777;52.282;5.960;2023-03-19T02:54:40;8.60;;;3.13;;
77612;SDS011;66777;52.282;5.960;2023-03-19T02:57:06;7.35;;;3.78;;
77612;SDS011;66777;52.282;5.960;2023-03-19T02:59:34;8.20;;;3.95;;
77612;SDS011;66777;52.282;5.960;2023-03-19T03:01:59;9.70;;;3.85;;
77612;SDS011;66777;52.282;5.960;2023-03-19T03:04:26;6.63;;;3.55;;
77612;SDS011;66777;52.282;5.960;2023-03-19T03:06:53;8.93;;;3.92;;
77612;SDS011;66777;52.282;5.960;2023-03-19T03:09:19;9.85;;;4.60;;
77612;SDS011;66777;52.282;5.960;2023-03-19T03:11:45;7.97;;;3.70;;
77612;SDS011;66777;52.282;5.960;2023-03-19T03:14:11;8.65;;;3.30;;
77612;SDS011;66777;52.282;5.960;2023-03-19T03:16:36;9.90;;;4.63;;
77612;SDS011;66777;52.282;5.960;2023-03-19T03:19:02;8.95;;;4.55;;
77612;SDS011;66777;52.282;5.960;2023-03-19T03:21:29;9.63;;;3.90;;
77612;SDS011;66777;52.282;5.960;2023-03-19T03:23:54;9.43;;;4.05;;
77612;SDS011;66777;52.282;5.960;2023-03-19T03:26:20;9.15;;;4.55;;
77612;SDS011;66777;52.282;5.960;2023-03-19T03:28:46;9.23;;;4.50;;
77612;SDS011;66777;52.282;5.960;2023-03-19T03:31:13;9.80;;;4.93;;
77612;SDS011;66777;52.282;5.960;2023-03-19T03:33:39;9.77;;;4.97;;
77612;SDS011;66777;52.282;5.960;2023-03-19T03:36:04;9.63;;;4.57;;
77612;SDS011;66777;52.282;5.960;2023-03-19T03:38:31;8.90;;;4.57;;
77612;SDS011;66777;52.282;5.960;2023-03-19T03:40:56;8.48;;;4.35;;
77612;SDS011;66777;52.282;5.960;2023-03-19T03:43:23;11.32;;;4.53;;
77612;SDS011;66777;52.282;5.960;2023-03-19T03:45:49;10.10;;;5.00;;
77612;SDS011;66777;52.282;5.960;2023-03-19T03:48:15;11.48;;;4.22;;
77612;SDS011;66777;52.282;5.960;2023-03-19T03:50:41;10.60;;;4.88;;
77612;SDS011;66777;52.282;5.960;2023-03-19T03:53:07;8.50;;;4.30;;
77612;SDS011;66777;52.282;5.960;2023-03-19T03:55:34;9.35;;;4.60;;
77612;SDS011;66777;52.282;5.960;2023-03-19T03:57:59;9.93;;;4.75;;
77612;SDS011;66777;52.282;5.960;2023-03-19T04:00:25;9.95;;;4.47;;
77612;SDS011;66777;52.282;5.960;2023-03-19T04:02:51;11.77;;;4.97;;
77612;SDS011;66777;52.282;5.960;2023-03-19T04:05:17;9.48;;;4.78;;
77612;SDS011;66777;52.282;5.960;2023-03-19T04:07:43;11.90;;;4.40;;
77612;SDS011;66777;52.282;5.960;2023-03-19T04:10:10;11.45;;;5.47;;
77612;SDS011;66777;52.282;5.960;2023-03-19T04:12:36;12.45;;;5.18;;
77612;SDS011;66777;52.282;5.960;2023-03-19T04:15:06;13.63;;;5.20;;
77612;SDS011;66777;52.282;5.960;2023-03-19T04:19:59;10.25;;;4.63;;
77612;SDS011;66777;52.282;5.960;2023-03-19T04:22:25;10.05;;;4.85;;
77612;SDS011;66777;52.282;5.960;2023-03-19T04:24:51;11.18;;;4.68;;
77612;SDS011;66777;52.282;5.960;2023-03-19T04:27:17;12.40;;;5.03;;
77612;SDS011;66777;52.282;5.960;2023-03-19T04:29:45;11.80;;;5.20;;
77612;SDS011;66777;52.282;5.960;2023-03-19T04:32:11;10.90;;;5.05;;
77612;SDS011;66777;52.282;5.960;2023-03-19T04:34:36;11.88;;;5.60;;
77612;SDS011;66777;52.282;5.960;2023-03-19T04:37:02;12.07;;;4.80;;
77612;SDS011;66777;52.282;5.960;2023-03-19T04:39:28;11.93;;;5.53;;
77612;SDS011;66777;52.282;5.960;2023-03-19T04:41:53;11.75;;;5.63;;
77612;SDS011;66777;52.282;5.960;2023-03-19T04:44:20;14.20;;;5.75;;
77612;SDS011;66777;52.282;5.960;2023-03-19T04:46:46;11.50;;;5.43;;
77612;SDS011;66777;52.282;5.960;2023-03-19T04:49:12;10.30;;;5.60;;
77612;SDS011;66777;52.282;5.960;2023-03-19T04:51:38;12.60;;;5.43;;
77612;SDS011;66777;52.282;5.960;2023-03-19T04:54:03;10.15;;;5.05;;
77612;SDS011;66777;52.282;5.960;2023-03-19T04:56:29;13.40;;;6.13;;
77612;SDS011;66777;52.282;5.960;2023-03-19T04:58:56;13.75;;;5.80;;
77612;SDS011;66777;52.282;5.960;2023-03-19T05:01:21;11.10;;;5.53;;
77612;SDS011;66777;52.282;5.960;2023-03-19T05:03:47;11.82;;;5.90;;
77612;SDS011;66777;52.282;5.960;2023-03-19T05:06:13;10.35;;;4.85;;
77612;SDS011;66777;52.282;5.960;2023-03-19T05:08:40;11.02;;;4.85;;
77612;SDS011;66777;52.282;5.960;2023-03-19T05:11:05;13.20;;;5.78;;
77612;SDS011;66777;52.282;5.960;2023-03-19T05:13:31;10.63;;;5.25;;
77612;SDS011;66777;52.282;5.960;2023-03-19T05:15:57;12.45;;;4.93;;
77612;SDS011;66777;52.282;5.960;2023-03-19T05:18:22;13.05;;;5.50;;
77612;SDS011;66777;52.282;5.960;2023-03-19T05:20:48;12.88;;;5.55;;
77612;SDS011;66777;52.282;5.960;2023-03-19T05:23:14;11.48;;;4.85;;
77612;SDS011;66777;52.282;5.960;2023-03-19T05:25:39;11.77;;;4.93;;
77612;SDS011;66777;52.282;5.960;2023-03-19T05:28:06;11.18;;;5.28;;
77612;SDS011;66777;52.282;5.960;2023-03-19T05:30:32;14.93;;;5.88;;
77612;SDS011;66777;52.282;5.960;2023-03-19T05:32:58;12.38;;;5.28;;
77612;SDS011;66777;52.282;5.960;2023-03-19T05:35:25;13.75;;;6.05;;
77612;SDS011;66777;52.282;5.960;2023-03-19T05:37:53;10.80;;;5.20;;
77612;SDS011;66777;52.282;5.960;2023-03-19T05:40:19;14.55;;;6.05;;
77612;SDS011;66777;52.282;5.960;2023-03-19T05:42:46;12.00;;;5.78;;
77612;SDS011;66777;52.282;5.960;2023-03-19T05:45:14;13.00;;;6.18;;
77612;SDS011;66777;52.282;5.960;2023-03-19T05:47:41;14.27;;;6.07;;
77612;SDS011;66777;52.282;5.960;2023-03-19T05:50:07;16.40;;;6.13;;
77612;SDS011;66777;52.282;5.960;2023-03-19T05:52:33;11.27;;;5.55;;
77612;SDS011;66777;52.282;5.960;2023-03-19T05:54:59;13.90;;;5.85;;
77612;SDS011;66777;52.282;5.960;2023-03-19T05:57:25;18.90;;;7.53;;
77612;SDS011;66777;52.282;5.960;2023-03-19T05:59:51;21.05;;;9.10;;
77612;SDS011;66777;52.282;5.960;2023-03-19T06:02:16;17.88;;;7.57;;
77612;SDS011;66777;52.282;5.960;2023-03-19T06:04:42;25.17;;;8.38;;
77612;SDS011;66777;52.282;5.960;2023-03-19T06:07:07;21.50;;;8.52;;
77612;SDS011;66777;52.282;5.960;2023-03-19T06:09:33;23.65;;;7.75;;
77612;SDS011;66777;52.282;5.960;2023-03-19T06:11:59;22.75;;;7.70;;
77612;SDS011;66777;52.282;5.960;2023-03-19T06:14:24;24.52;;;8.43;;
77612;SDS011;66777;52.282;5.960;2023-03-19T06:16:50;23.88;;;8.32;;
77612;SDS011;66777;52.282;5.960;2023-03-19T06:19:16;22.77;;;8.45;;
77612;SDS011;66777;52.282;5.960;2023-03-19T06:21:41;26.67;;;8.88;;
77612;SDS011;66777;52.282;5.960;2023-03-19T06:24:07;26.98;;;9.13;;
77612;SDS011;66777;52.282;5.960;2023-03-19T06:26:33;28.38;;;9.40;;
77612;SDS011;66777;52.282;5.960;2023-03-19T06:28:58;28.63;;;10.00;;
77612;SDS011;66777;52.282;5.960;2023-03-19T06:31:24;35.88;;;11.90;;
77612;SDS011;66777;52.282;5.960;2023-03-19T06:33:51;26.77;;;9.63;;
77612;SDS011;66777;52.282;5.960;2023-03-19T06:36:17;28.83;;;9.75;;
77612;SDS011;66777;52.282;5.960;2023-03-19T06:38:43;26.20;;;9.45;;
77612;SDS011;66777;52.282;5.960;2023-03-19T06:41:09;33.28;;;10.38;;
77612;SDS011;66777;52.282;5.960;2023-03-19T06:43:35;31.80;;;10.25;;
77612;SDS011;66777;52.282;5.960;2023-03-19T06:46:01;28.90;;;10.95;;
77612;SDS011;66777;52.282;5.960;2023-03-19T06:48:28;27.00;;;9.85;;
77612;SDS011;66777;52.282;5.960;2023-03-19T06:50:55;25.00;;;8.95;;
77612;SDS011;66777;52.282;5.960;2023-03-19T06:53:20;31.08;;;11.23;;
77612;SDS011;66777;52.282;5.960;2023-03-19T06:55:46;30.40;;;11.18;;
77612;SDS011;66777;52.282;5.960;2023-03-19T06:58:12;35.58;;;11.32;;
77612;SDS011;66777;52.282;5.960;2023-03-19T07:00:37;33.20;;;11.90;;
77612;SDS011;66777;52.282;5.960;2023-03-19T07:03:03;36.75;;;11.90;;
77612;SDS011;66777;52.282;5.960;2023-03-19T07:05:28;33.40;;;11.50;;
77612;SDS011;66777;52.282;5.960;2023-03-19T07:07:54;38.45;;;11.43;;
77612;SDS011;66777;52.282;5.960;2023-03-19T07:10:20;36.75;;;12.27;;
77612;SDS011;66777;52.282;5.960;2023-03-19T07:12:46;35.85;;;12.55;;
77612;SDS011;66777;52.282;5.960;2023-03-19T07:15:11;33.53;;;12.85;;
77612;SDS011;66777;52.282;5.960;2023-03-19T07:17:37;39.08;;;13.55;;
77612;SDS011;66777;52.282;5.960;2023-03-19T07:20:03;35.92;;;11.93;;
77612;SDS011;66777;52.282;5.960;2023-03-19T07:22:29;33.92;;;13.07;;
77612;SDS011;66777;52.282;5.960;2023-03-19T07:24:56;36.72;;;13.52;;
77612;SDS011;66777;52.282;5.960;2023-03-19T07:27:22;43.55;;;13.68;;
77612;SDS011;66777;52.282;5.960;2023-03-19T07:29:52;38.15;;;13.57;;
77612;SDS011;66777;52.282;5.960;2023-03-19T07:32:19;39.88;;;13.38;;
77612;SDS011;66777;52.282;5.960;2023-03-19T07:34:46;42.65;;;13.70;;
77612;SDS011;66777;52.282;5.960;2023-03-19T07:37:13;43.08;;;15.05;;
77612;SDS011;66777;52.282;5.960;2023-03-19T07:39:38;37.53;;;14.43;;
77612;SDS011;66777;52.282;5.960;2023-03-19T07:42:05;39.70;;;13.85;;
77612;SDS011;66777;52.282;5.960;2023-03-19T07:44:31;33.92;;;13.48;;
77612;SDS011;66777;52.282;5.960;2023-03-19T07:46:56;39.85;;;13.85;;
77612;SDS011;66777;52.282;5.960;2023-03-19T07:49:22;32.95;;;13.07;;
77612;SDS011;66777;52.282;5.960;2023-03-19T07:51:49;33.35;;;13.82;;
77612;SDS011;66777;52.282;5.960;2023-03-19T07:54:15;37.53;;;15.15;;
77612;SDS011;66777;52.282;5.960;2023-03-19T07:56:41;39.00;;;16.10;;
77612;SDS011;66777;52.282;5.960;2023-03-19T07:59:07;37.13;;;14.13;;
77612;SDS011;66777;52.282;5.960;2023-03-19T08:01:33;34.92;;;14.85;;
77612;SDS011;66777;52.282;5.960;2023-03-19T08:04:13;37.83;;;16.75;;
77612;SDS011;66777;52.282;5.960;2023-03-19T08:06:39;35.85;;;15.23;;
77612;SDS011;66777;52.282;5.960;2023-03-19T08:11:42;36.28;;;15.15;;
77612;SDS011;66777;52.282;5.960;2023-03-19T08:14:07;36.75;;;16.05;;
77612;SDS011;66777;52.282;5.960;2023-03-19T08:16:33;35.42;;;15.30;;
77612;SDS011;66777;52.282;5.960;2023-03-19T08:18:59;31.42;;;13.88;;
77612;SDS011;66777;52.282;5.960;2023-03-19T08:21:24;30.90;;;14.77;;
77612;SDS011;66777;52.282;5.960;2023-03-19T08:23:51;31.35;;;13.95;;
77612;SDS011;66777;52.282;5.960;2023-03-19T08:26:17;31.92;;;14.05;;
77612;SDS011;66777;52.282;5.960;2023-03-19T08:28:42;31.73;;;12.23;;
77612;SDS011;66777;52.282;5.960;2023-03-19T08:31:09;36.17;;;14.43;;
77612;SDS011;66777;52.282;5.960;2023-03-19T08:33:36;29.55;;;12.85;;
77612;SDS011;66777;52.282;5.960;2023-03-19T08:36:03;34.92;;;14.45;;
77612;SDS011;66777;52.282;5.960;2023-03-19T08:38:31;30.73;;;14.07;;
77612;SDS011;66777;52.282;5.960;2023-03-19T08:40:56;30.52;;;13.40;;
77612;SDS011;66777;52.282;5.960;2023-03-19T08:43:26;29.58;;;12.27;;
77612;SDS011;66777;52.282;5.960;2023-03-19T08:45:52;31.20;;;12.10;;
77612;SDS011;66777;52.282;5.960;2023-03-19T08:48:18;29.70;;;12.55;;
77612;SDS011;66777;52.282;5.960;2023-03-19T08:50:43;31.83;;;14.75;;
77612;SDS011;66777;52.282;5.960;2023-03-19T08:53:09;33.92;;;14.52;;
77612;SDS011;66777;52.282;5.960;2023-03-19T08:55:35;33.28;;;16.13;;
77612;SDS011;66777;52.282;5.960;2023-03-19T08:58:00;28.42;;;12.98;;
77612;SDS011;66777;52.282;5.960;2023-03-19T09:00:26;39.28;;;15.18;;
77612;SDS011;66777;52.282;5.960;2023-03-19T09:02:51;32.25;;;14.60;;
77612;SDS011;66777;52.282;5.960;2023-03-19T09:05:17;30.20;;;15.38;;
77612;SDS011;66777;52.282;5.960;2023-03-19T09:07:46;34.58;;;14.88;;
77612;SDS011;66777;52.282;5.960;2023-03-19T09:10:12;31.35;;;13.73;;
77612;SDS011;66777;52.282;5.960;2023-03-19T09:12:38;33.22;;;15.32;;
77612;SDS011;66777;52.282;5.960;2023-03-19T09:15:03;31.73;;;14.27;;
77612;SDS011;66777;52.282;5.960;2023-03-19T09:17:30;29.48;;;12.88;;
77612;SDS011;66777;52.282;5.960;2023-03-19T09:19:56;34.25;;;14.88;;
77612;SDS011;66777;52.282;5.960;2023-03-19T09:22:21;31.58;;;14.00;;
77612;SDS011;66777;52.282;5.960;2023-03-19T09:24:47;32.05;;;14.95;;
77612;SDS011;66777;52.282;5.960;2023-03-19T09:27:13;28.75;;;13.05;;
77612;SDS011;66777;52.282;5.960;2023-03-19T09:29:38;33.72;;;14.27;;
77612;SDS011;66777;52.282;5.960;2023-03-19T09:32:05;31.05;;;14.27;;
77612;SDS011;66777;52.282;5.960;2023-03-19T09:34:31;29.83;;;12.45;;
77612;SDS011;66777;52.282;5.960;2023-03-19T09:36:58;33.55;;;13.65;;
77612;SDS011;66777;52.282;5.960;2023-03-19T09:39:23;32.40;;;14.80;;
77612;SDS011;66777;52.282;5.960;2023-03-19T09:44:36;28.85;;;13.18;;
77612;SDS011;66777;52.282;5.960;2023-03-19T09:47:11;29.88;;;13.25;;
77612;SDS011;66777;52.282;5.960;2023-03-19T09:49:49;27.90;;;11.63;;
77612;SDS011;66777;52.282;5.960;2023-03-19T09:53:22;26.17;;;11.63;;
77612;SDS011;66777;52.282;5.960;2023-03-19T09:57:48;25.95;;;12.80;;
77612;SDS011;66777;52.282;5.960;2023-03-19T10:05:48;25.50;;;10.93;;
77612;SDS011;66777;52.282;5.960;2023-03-19T10:08:32;25.13;;;11.75;;
77612;SDS011;66777;52.282;5.960;2023-03-19T10:16:41;24.30;;;11.55;;
77612;SDS011;66777;52.282;5.960;2023-03-19T10:19:11;23.67;;;11.32;;
77612;SDS011;66777;52.282;5.960;2023-03-19T10:21:44;21.45;;;9.88;;
77612;SDS011;66777;52.282;5.960;2023-03-19T10:24:22;22.05;;;10.65;;
77612;SDS011;66777;52.282;5.960;2023-03-19T10:26:57;19.80;;;10.27;;
77612;SDS011;66777;52.282;5.960;2023-03-19T10:29:25;24.73;;;10.65;;
77612;SDS011;66777;52.282;5.960;2023-03-19T10:31:55;22.95;;;11.18;;
77612;SDS011;66777;52.282;5.960;2023-03-19T10:34:28;22.00;;;10.60;;
77612;SDS011;66777;52.282;5.960;2023-03-19T10:37:05;20.80;;;10.35;;
77612;SDS011;66777;52.282;5.960;2023-03-19T10:39:44;20.73;;;10.60;;
77612;SDS011;66777;52.282;5.960;2023-03-19T10:44:47;18.45;;;8.98;;
77612;SDS011;66777;52.282;5.960;2023-03-19T10:47:15;16.27;;;7.70;;
77612;SDS011;66777;52.282;5.960;2023-03-19T10:49:43;17.50;;;9.30;;
77612;SDS011;66777;52.282;5.960;2023-03-19T10:52:21;18.02;;;10.32;;
77612;SDS011;66777;52.282;5.960;2023-03-19T10:55:01;17.65;;;9.23;;
77612;SDS011;66777;52.282;5.960;2023-03-19T10:57:31;18.27;;;10.38;;
77612;SDS011;66777;52.282;5.960;2023-03-19T11:00:01;17.67;;;9.20;;
77612;SDS011;66777;52.282;5.960;2023-03-19T11:02:30;17.38;;;9.23;;
77612;SDS011;66777;52.282;5.960;2023-03-19T11:07:37;18.27;;;9.20;;
77612;SDS011;66777;52.282;5.960;2023-03-19T11:10:04;16.00;;;8.90;;
77612;SDS011;66777;52.282;5.960;2023-03-19T11:12:36;14.95;;;8.30;;
77612;SDS011;66777;52.282;5.960;2023-03-19T11:15:03;13.98;;;8.82;;
77612;SDS011;66777;52.282;5.960;2023-03-19T11:17:46;14.73;;;8.18;;
77612;SDS011;66777;52.282;5.960;2023-03-19T11:22:55;17.08;;;9.27;;
77612;SDS011;66777;52.282;5.960;2023-03-19T11:25:33;14.50;;;7.88;;
77612;SDS011;66777;52.282;5.960;2023-03-19T11:28:07;18.08;;;8.15;;
77612;SDS011;66777;52.282;5.960;2023-03-19T11:30:52;16.45;;;9.40;;
77612;SDS011;66777;52.282;5.960;2023-03-19T11:36:12;20.30;;;10.60;;
77612;SDS011;66777;52.282;5.960;2023-03-19T11:44:16;19.10;;;9.55;;
77612;SDS011;66777;52.282;5.960;2023-03-19T11:49:33;19.25;;;10.07;;
77612;SDS011;66777;52.282;5.960;2023-03-19T11:52:11;16.00;;;9.82;;
77612;SDS011;66777;52.282;5.960;2023-03-19T11:55:01;15.48;;;10.45;;
77612;SDS011;66777;52.282;5.960;2023-03-19T12:02:56;18.98;;;17.02;;
77612;SDS011;66777;52.282;5.960;2023-03-19T12:06:14;20.77;;;18.77;;
77612;SDS011;66777;52.282;5.960;2023-03-19T12:09:00;21.58;;;19.80;;
77612;SDS011;66777;52.282;5.960;2023-03-19T12:11:40;26.10;;;24.15;;
77612;SDS011;66777;52.282;5.960;2023-03-19T12:19:47;30.40;;;28.30;;
77612;SDS011;66777;52.282;5.960;2023-03-19T12:22:29;33.30;;;30.90;;
77612;SDS011;66777;52.282;5.960;2023-03-19T12:30:41;37.65;;;35.22;;
77612;SDS011;66777;52.282;5.960;2023-03-19T12:33:13;34.60;;;32.25;;
77612;SDS011;66777;52.282;5.960;2023-03-19T12:36:02;27.80;;;25.88;;
77612;SDS011;66777;52.282;5.960;2023-03-19T12:38:42;28.20;;;26.27;;
77612;SDS011;66777;52.282;5.960;2023-03-19T12:41:29;22.25;;;20.55;;
77612;SDS011;66777;52.282;5.960;2023-03-19T12:44:14;20.48;;;18.48;;
77612;SDS011;66777;52.282;5.960;2023-03-19T12:46:54;22.88;;;20.92;;
77612;SDS011;66777;52.282;5.960;2023-03-19T12:49:30;22.23;;;20.33;;
77612;SDS011;66777;52.282;5.960;2023-03-19T12:52:47;24.05;;;22.05;;
77612;SDS011;66777;52.282;5.960;2023-03-19T12:58:06;26.00;;;23.95;;
77612;SDS011;66777;52.282;5.960;2023-03-19T13:00:44;28.60;;;26.35;;
77612;SDS011;66777;52.282;5.960;2023-03-19T13:12:56;26.38;;;24.08;;
77612;SDS011;66777;52.282;5.960;2023-03-19T13:15:27;25.55;;;23.35;;
77612;SDS011;66777;52.282;5.960;2023-03-19T13:23:29;26.00;;;23.48;;
77612;SDS011;66777;52.282;5.960;2023-03-19T13:25:58;24.08;;;21.30;;
77612;SDS011;66777;52.282;5.960;2023-03-19T13:28:29;26.30;;;23.20;;
77612;SDS011;66777;52.282;5.960;2023-03-19T13:31:01;27.00;;;24.33;;
77612;SDS011;66777;52.282;5.960;2023-03-19T13:33:32;26.92;;;24.25;;
77612;SDS011;66777;52.282;5.960;2023-03-19T13:36:00;27.02;;;24.17;;
77612;SDS011;66777;52.282;5.960;2023-03-19T13:38:33;25.52;;;22.98;;
77612;SDS011;66777;52.282;5.960;2023-03-19T13:43:59;27.25;;;24.45;;
77612;SDS011;66777;52.282;5.960;2023-03-19T13:46:54;25.17;;;22.33;;
77612;SDS011;66777;52.282;5.960;2023-03-19T13:49:22;22.80;;;20.00;;
77612;SDS011;66777;52.282;5.960;2023-03-19T13:52:10;22.00;;;19.05;;
77612;SDS011;66777;52.282;5.960;2023-03-19T13:54:51;24.77;;;19.98;;
77612;SDS011;66777;52.282;5.960;2023-03-19T13:57:31;25.15;;;20.35;;
77612;SDS011;66777;52.282;5.960;2023-03-19T14:00:53;22.02;;;19.27;;
77612;SDS011;66777;52.282;5.960;2023-03-19T14:03:05;26.27;;;19.80;;
77612;SDS011;66777;52.282;5.960;2023-03-19T14:05:46;23.00;;;19.98;;
77612;SDS011;66777;52.282;5.960;2023-03-19T14:08:14;22.63;;;18.98;;
77612;SDS011;66777;52.282;5.960;2023-03-19T14:10:57;24.42;;;18.02;;
77612;SDS011;66777;52.282;5.960;2023-03-19T14:13:39;25.58;;;20.33;;
77612;SDS011;66777;52.282;5.960;2023-03-19T14:16:21;24.92;;;20.27;;
77612;SDS011;66777;52.282;5.960;2023-03-19T14:18:51;27.33;;;22.60;;
77612;SDS011;66777;52.282;5.960;2023-03-19T14:27:10;22.80;;;18.60;;
77612;SDS011;66777;52.282;5.960;2023-03-19T14:29:43;24.95;;;17.67;;
77612;SDS011;66777;52.282;5.960;2023-03-19T14:32:17;24.35;;;18.73;;
77612;SDS011;66777;52.282;5.960;2023-03-19T14:34:45;22.95;;;17.27;;
77612;SDS011;66777;52.282;5.960;2023-03-19T14:37:28;21.33;;;17.95;;
77612;SDS011;66777;52.282;5.960;2023-03-19T14:50:57;18.45;;;15.82;;
77612;SDS011;66777;52.282;5.960;2023-03-19T14:54:04;19.80;;;17.80;;
77612;SDS011;66777;52.282;5.960;2023-03-19T14:56:42;19.10;;;16.95;;
77612;SDS011;66777;52.282;5.960;2023-03-19T14:59:08;18.63;;;15.88;;
77612;SDS011;66777;52.282;5.960;2023-03-19T15:01:43;16.13;;;14.43;;
77612;SDS011;66777;52.282;5.960;2023-03-19T15:04:13;19.65;;;14.88;;
77612;SDS011;66777;52.282;5.960;2023-03-19T15:06:41;18.70;;;14.48;;
77612;SDS011;66777;52.282;5.960;2023-03-19T15:09:18;17.30;;;13.82;;
77612;SDS011;66777;52.282;5.960;2023-03-19T15:17:38;20.23;;;13.55;;
77612;SDS011;66777;52.282;5.960;2023-03-19T15:20:12;18.17;;;12.25;;
77612;SDS011;66777;52.282;5.960;2023-03-19T15:22:42;16.25;;;10.75;;
77612;SDS011;66777;52.282;5.960;2023-03-19T15:25:11;23.17;;;14.27;;
77612;SDS011;66777;52.282;5.960;2023-03-19T15:27:39;16.38;;;10.18;;
77612;SDS011;66777;52.282;5.960;2023-03-19T15:30:22;18.38;;;10.18;;
77612;SDS011;66777;52.282;5.960;2023-03-19T15:32:51;15.40;;;8.60;;
77612;SDS011;66777;52.282;5.960;2023-03-19T15:35:17;22.27;;;11.40;;
77612;SDS011;66777;52.282;5.960;2023-03-19T15:37:46;15.77;;;9.05;;
77612;SDS011;66777;52.282;5.960;2023-03-19T15:40:15;16.17;;;10.23;;
77612;SDS011;66777;52.282;5.960;2023-03-19T15:42:45;21.77;;;12.30;;
77612;SDS011;66777;52.282;5.960;2023-03-19T15:45:12;19.33;;;10.38;;
77612;SDS011;66777;52.282;5.960;2023-03-19T15:47:45;19.70;;;10.88;;
77612;SDS011;66777;52.282;5.960;2023-03-19T15:50:17;20.40;;;10.45;;
77612;SDS011;66777;52.282;5.960;2023-03-19T15:52:46;21.85;;;11.20;;
77612;SDS011;66777;52.282;5.960;2023-03-19T15:55:22;28.52;;;15.00;;
77612;SDS011;66777;52.282;5.960;2023-03-19T15:57:50;21.80;;;10.63;;
77612;SDS011;66777;52.282;5.960;2023-03-19T16:00:17;15.63;;;8.02;;
77612;SDS011;66777;52.282;5.960;2023-03-19T16:02:44;19.25;;;9.77;;
77612;SDS011;66777;52.282;5.960;2023-03-19T16:05:23;15.73;;;7.97;;
77612;SDS011;66777;52.282;5.960;2023-03-19T16:07:51;22.70;;;9.75;;
77612;SDS011;66777;52.282;5.960;2023-03-19T16:12:53;16.45;;;8.57;;
77612;SDS011;66777;52.282;5.960;2023-03-19T16:17:52;13.93;;;6.72;;
77612;SDS011;66777;52.282;5.960;2023-03-19T16:20:17;18.17;;;8.68;;
77612;SDS011;66777;52.282;5.960;2023-03-19T16:22:46;17.98;;;8.65;;
77612;SDS011;66777;52.282;5.960;2023-03-19T16:25:18;15.93;;;8.18;;
77612;SDS011;66777;52.282;5.960;2023-03-19T16:27:45;18.08;;;7.78;;
77612;SDS011;66777;52.282;5.960;2023-03-19T16:30:29;21.75;;;8.48;;
77612;SDS011;66777;52.282;5.960;2023-03-19T16:32:59;20.25;;;8.40;;
77612;SDS011;66777;52.282;5.960;2023-03-19T16:35:27;15.52;;;8.57;;
77612;SDS011;66777;52.282;5.960;2023-03-19T16:40:40;18.70;;;8.82;;